sensor_id;sensor_type;location;lat;lon;timestamp;P1;durP1;ratioP1;P2;durP2;ratioP2
28166;SDS011;15455;53.376;-6.262;2023-03-24T00:01:57;13.20;;;1.67;;
28166;SDS011;15455;53.376;-6.262;2023-03-24T00:04:43;13.43;;;1.60;;
28166;SDS011;15455;53.376;-6.262;2023-03-24T00:07:31;6.72;;;1.20;;
28166;SDS011;15455;53.376;-6.262;2023-03-24T00:10:19;8.23;;;1.60;;
28166;SDS011;15455;53.376;-6.262;2023-03-24T00:13:06;10.85;;;1.30;;
28166;SDS011;15455;53.376;-6.262;2023-03-24T00:15:52;17.67;;;1.80;;
28166;SDS011;15455;53.376;-6.262;2023-03-24T00:18:37;10.40;;;1.90;;
28166;SDS011;15455;53.376;-6.262;2023-03-24T00:21:24;5.57;;;1.38;;
28166;SDS011;15455;53.376;-6.262;2023-03-24T00:24:10;5.07;;;1.42;;
28166;SDS011;15455;53.376;-6.262;2023-03-24T00:26:56;10.57;;;1.92;;
28166;SDS011;15455;53.376;-6.262;2023-03-24T00:29:42;15.80;;;1.95;;
28166;SDS011;15455;53.376;-6.262;2023-03-24T00:32:28;7.88;;;1.75;;
28166;SDS011;15455;53.376;-6.262;2023-03-24T00:35:15;7.90;;;1.90;;
28166;SDS011;15455;53.376;-6.262;2023-03-24T00:38:02;11.20;;;2.70;;
28166;SDS011;15455;53.376;-6.262;2023-03-24T00:40:47;13.15;;;1.50;;
28166;SDS011;15455;53.376;-6.262;2023-03-24T00:43:34;8.48;;;1.25;;
28166;SDS011;15455;53.376;-6.262;2023-03-24T00:46:20;7.20;;;1.80;;
28166;SDS011;15455;53.376;-6.262;2023-03-24T00:49:14;10.35;;;1.20;;
28166;SDS011;15455;53.376;-6.262;2023-03-24T00:52:01;10.48;;;1.50;;
28166;SDS011;15455;53.376;-6.262;2023-03-24T00:54:53;7.20;;;1.30;;
28166;SDS011;15455;53.376;-6.262;2023-03-24T00:57:43;14.93;;;2.35;;
28166;SDS011;15455;53.376;-6.262;2023-03-24T01:00:36;12.05;;;1.55;;
28166;SDS011;15455;53.376;-6.262;2023-03-24T01:03:26;7.63;;;1.40;;
28166;SDS011;15455;53.376;-6.262;2023-03-24T01:06:12;12.07;;;1.55;;
28166;SDS011;15455;53.376;-6.262;2023-03-24T01:08:58;3.85;;;1.02;;
28166;SDS011;15455;53.376;-6.262;2023-03-24T01:11:43;9.98;;;1.88;;
28166;SDS011;15455;53.376;-6.262;2023-03-24T01:14:29;9.88;;;1.88;;
28166;SDS011;15455;53.376;-6.262;2023-03-24T01:17:16;10.57;;;1.70;;
28166;SDS011;15455;53.376;-6.262;2023-03-24T01:20:03;9.70;;;1.38;;
28166;SDS011;15455;53.376;-6.262;2023-03-24T01:22:52;13.75;;;1.35;;
28166;SDS011;15455;53.376;-6.262;2023-03-24T01:25:37;9.85;;;1.83;;
28166;SDS011;15455;53.376;-6.262;2023-03-24T01:28:24;12.60;;;1.35;;
28166;SDS011;15455;53.376;-6.262;2023-03-24T01:31:10;12.20;;;1.40;;
28166;SDS011;15455;53.376;-6.262;2023-03-24T01:33:55;14.18;;;1.90;;
28166;SDS011;15455;53.376;-6.262;2023-03-24T01:36:41;6.32;;;1.55;;
28166;SDS011;15455;53.376;-6.262;2023-03-24T01:39:26;15.48;;;1.90;;
28166;SDS011;15455;53.376;-6.262;2023-03-24T01:42:18;10.77;;;1.52;;
28166;SDS011;15455;53.376;-6.262;2023-03-24T01:48:27;8.93;;;1.40;;
28166;SDS011;15455;53.376;-6.262;2023-03-24T01:52:03;10.27;;;1.20;;
28166;SDS011;15455;53.376;-6.262;2023-03-24T01:54:45;9.75;;;1.40;;
28166;SDS011;15455;53.376;-6.262;2023-03-24T01:57:40;12.32;;;2.53;;
28166;SDS011;15455;53.376;-6.262;2023-03-24T02:00:28;10.20;;;1.40;;
28166;SDS011;15455;53.376;-6.262;2023-03-24T02:03:46;9.68;;;1.42;;
28166;SDS011;15455;53.376;-6.262;2023-03-24T02:06:33;10.02;;;1.30;;
28166;SDS011;15455;53.376;-6.262;2023-03-24T02:09:20;3.33;;;1.15;;
28166;SDS011;15455;53.376;-6.262;2023-03-24T02:12:06;8.65;;;1.95;;
28166;SDS011;15455;53.376;-6.262;2023-03-24T02:14:52;11.70;;;0.98;;
28166;SDS011;15455;53.376;-6.262;2023-03-24T02:24:05;10.57;;;1.63;;
28166;SDS011;15455;53.376;-6.262;2023-03-24T02:42:05;10.38;;;1.70;;
28166;SDS011;15455;53.376;-6.262;2023-03-24T02:45:22;8.77;;;1.92;;
28166;SDS011;15455;53.376;-6.262;2023-03-24T02:54:48;9.52;;;2.22;;
28166;SDS011;15455;53.376;-6.262;2023-03-24T02:57:53;10.70;;;1.27;;
28166;SDS011;15455;53.376;-6.262;2023-03-24T03:01:05;8.32;;;1.35;;
28166;SDS011;15455;53.376;-6.262;2023-03-24T03:04:24;8.00;;;2.22;;
28166;SDS011;15455;53.376;-6.262;2023-03-24T03:07:18;8.35;;;1.35;;
28166;SDS011;15455;53.376;-6.262;2023-03-24T03:10:16;11.82;;;1.17;;
28166;SDS011;15455;53.376;-6.262;2023-03-24T03:13:07;7.63;;;1.20;;
28166;SDS011;15455;53.376;-6.262;2023-03-24T03:16:02;8.70;;;1.50;;
28166;SDS011;15455;53.376;-6.262;2023-03-24T03:18:59;11.68;;;1.55;;
28166;SDS011;15455;53.376;-6.262;2023-03-24T03:21:49;11.68;;;1.42;;
28166;SDS011;15455;53.376;-6.262;2023-03-24T03:24:40;14.18;;;1.52;;
28166;SDS011;15455;53.376;-6.262;2023-03-24T03:27:28;7.00;;;1.15;;
28166;SDS011;15455;53.376;-6.262;2023-03-24T03:30:26;8.55;;;1.13;;
28166;SDS011;15455;53.376;-6.262;2023-03-24T03:33:19;5.93;;;0.93;;
28166;SDS011;15455;53.376;-6.262;2023-03-24T03:39:09;19.92;;;2.55;;
28166;SDS011;15455;53.376;-6.262;2023-03-24T03:42:00;10.85;;;1.50;;
28166;SDS011;15455;53.376;-6.262;2023-03-24T03:44:47;6.32;;;1.20;;
28166;SDS011;15455;53.376;-6.262;2023-03-24T03:47:32;14.15;;;1.45;;
28166;SDS011;15455;53.376;-6.262;2023-03-24T03:50:19;7.45;;;1.05;;
28166;SDS011;15455;53.376;-6.262;2023-03-24T03:53:06;14.13;;;1.48;;
28166;SDS011;15455;53.376;-6.262;2023-03-24T03:55:52;11.43;;;2.00;;
28166;SDS011;15455;53.376;-6.262;2023-03-24T03:58:41;7.55;;;1.45;;
28166;SDS011;15455;53.376;-6.262;2023-03-24T04:01:32;13.35;;;1.88;;
28166;SDS011;15455;53.376;-6.262;2023-03-24T04:04:48;18.90;;;2.00;;
28166;SDS011;15455;53.376;-6.262;2023-03-24T04:18:39;10.35;;;1.48;;
28166;SDS011;15455;53.376;-6.262;2023-03-24T04:21:52;18.77;;;2.27;;
28166;SDS011;15455;53.376;-6.262;2023-03-24T04:30:50;11.45;;;1.77;;
28166;SDS011;15455;53.376;-6.262;2023-03-24T04:33:49;10.38;;;1.27;;
28166;SDS011;15455;53.376;-6.262;2023-03-24T04:36:52;11.07;;;1.45;;
28166;SDS011;15455;53.376;-6.262;2023-03-24T04:39:56;14.32;;;1.40;;
28166;SDS011;15455;53.376;-6.262;2023-03-24T04:42:47;11.60;;;1.52;;
28166;SDS011;15455;53.376;-6.262;2023-03-24T04:45:40;10.05;;;1.67;;
28166;SDS011;15455;53.376;-6.262;2023-03-24T04:48:37;13.52;;;1.75;;
28166;SDS011;15455;53.376;-6.262;2023-03-24T04:51:39;21.33;;;2.42;;
28166;SDS011;15455;53.376;-6.262;2023-03-24T04:54:34;11.02;;;1.55;;
28166;SDS011;15455;53.376;-6.262;2023-03-24T04:57:23;12.98;;;1.80;;
28166;SDS011;15455;53.376;-6.262;2023-03-24T05:00:15;9.52;;;1.90;;
28166;SDS011;15455;53.376;-6.262;2023-03-24T05:03:01;8.10;;;1.40;;
28166;SDS011;15455;53.376;-6.262;2023-03-24T05:05:48;19.90;;;2.08;;
28166;SDS011;15455;53.376;-6.262;2023-03-24T05:08:35;12.80;;;2.03;;
28166;SDS011;15455;53.376;-6.262;2023-03-24T05:11:20;6.50;;;1.42;;
28166;SDS011;15455;53.376;-6.262;2023-03-24T05:14:16;16.63;;;2.40;;
28166;SDS011;15455;53.376;-6.262;2023-03-24T05:17:02;8.77;;;1.85;;
28166;SDS011;15455;53.376;-6.262;2023-03-24T05:19:47;17.85;;;1.48;;
28166;SDS011;15455;53.376;-6.262;2023-03-24T05:22:33;16.40;;;1.77;;
28166;SDS011;15455;53.376;-6.262;2023-03-24T05:25:18;11.65;;;1.67;;
28166;SDS011;15455;53.376;-6.262;2023-03-24T05:28:04;19.63;;;2.53;;
28166;SDS011;15455;53.376;-6.262;2023-03-24T05:30:51;10.98;;;2.60;;
28166;SDS011;15455;53.376;-6.262;2023-03-24T05:33:55;16.83;;;2.67;;
28166;SDS011;15455;53.376;-6.262;2023-03-24T05:36:42;15.80;;;2.15;;
28166;SDS011;15455;53.376;-6.262;2023-03-24T05:39:29;13.40;;;1.77;;
28166;SDS011;15455;53.376;-6.262;2023-03-24T05:42:41;13.37;;;1.97;;
28166;SDS011;15455;53.376;-6.262;2023-03-24T05:45:29;13.85;;;1.92;;
28166;SDS011;15455;53.376;-6.262;2023-03-24T05:48:16;11.00;;;1.58;;
28166;SDS011;15455;53.376;-6.262;2023-03-24T05:51:22;18.55;;;1.77;;
28166;SDS011;15455;53.376;-6.262;2023-03-24T05:54:17;12.25;;;2.25;;
28166;SDS011;15455;53.376;-6.262;2023-03-24T05:57:06;12.68;;;1.75;;
28166;SDS011;15455;53.376;-6.262;2023-03-24T06:00:15;14.75;;;2.00;;
28166;SDS011;15455;53.376;-6.262;2023-03-24T06:03:11;17.52;;;2.13;;
28166;SDS011;15455;53.376;-6.262;2023-03-24T06:06:04;14.23;;;1.80;;
28166;SDS011;15455;53.376;-6.262;2023-03-24T06:08:53;11.63;;;2.03;;
28166;SDS011;15455;53.376;-6.262;2023-03-24T06:11:39;11.20;;;2.03;;
28166;SDS011;15455;53.376;-6.262;2023-03-24T06:14:27;20.20;;;1.95;;
28166;SDS011;15455;53.376;-6.262;2023-03-24T06:17:22;10.52;;;1.70;;
28166;SDS011;15455;53.376;-6.262;2023-03-24T06:20:12;18.20;;;2.22;;
28166;SDS011;15455;53.376;-6.262;2023-03-24T06:23:25;12.82;;;2.17;;
28166;SDS011;15455;53.376;-6.262;2023-03-24T06:26:24;16.15;;;1.35;;
28166;SDS011;15455;53.376;-6.262;2023-03-24T06:29:15;9.82;;;2.17;;
28166;SDS011;15455;53.376;-6.262;2023-03-24T06:32:04;17.45;;;2.08;;
28166;SDS011;15455;53.376;-6.262;2023-03-24T06:34:57;15.77;;;1.85;;
28166;SDS011;15455;53.376;-6.262;2023-03-24T06:38:08;20.45;;;2.22;;
28166;SDS011;15455;53.376;-6.262;2023-03-24T06:40:58;15.07;;;2.25;;
28166;SDS011;15455;53.376;-6.262;2023-03-24T06:43:45;12.18;;;2.17;;
28166;SDS011;15455;53.376;-6.262;2023-03-24T06:46:31;14.23;;;2.00;;
28166;SDS011;15455;53.376;-6.262;2023-03-24T06:49:18;8.82;;;1.35;;
28166;SDS011;15455;53.376;-6.262;2023-03-24T06:52:03;24.75;;;2.00;;
28166;SDS011;15455;53.376;-6.262;2023-03-24T06:54:53;15.73;;;1.88;;
28166;SDS011;15455;53.376;-6.262;2023-03-24T06:57:39;22.38;;;2.45;;
28166;SDS011;15455;53.376;-6.262;2023-03-24T07:00:48;12.85;;;1.73;;
28166;SDS011;15455;53.376;-6.262;2023-03-24T07:04:00;22.70;;;2.30;;
28166;SDS011;15455;53.376;-6.262;2023-03-24T07:07:16;21.17;;;2.90;;
28166;SDS011;15455;53.376;-6.262;2023-03-24T07:10:45;15.70;;;1.80;;
28166;SDS011;15455;53.376;-6.262;2023-03-24T07:13:32;23.63;;;2.35;;
28166;SDS011;15455;53.376;-6.262;2023-03-24T07:16:21;20.13;;;2.75;;
28166;SDS011;15455;53.376;-6.262;2023-03-24T07:19:16;11.85;;;2.28;;
28166;SDS011;15455;53.376;-6.262;2023-03-24T07:22:06;20.80;;;2.83;;
28166;SDS011;15455;53.376;-6.262;2023-03-24T07:25:08;15.60;;;1.90;;
28166;SDS011;15455;53.376;-6.262;2023-03-24T07:28:16;18.30;;;2.25;;
28166;SDS011;15455;53.376;-6.262;2023-03-24T07:31:03;17.80;;;2.85;;
28166;SDS011;15455;53.376;-6.262;2023-03-24T07:33:51;18.88;;;2.35;;
28166;SDS011;15455;53.376;-6.262;2023-03-24T07:36:36;20.98;;;2.67;;
28166;SDS011;15455;53.376;-6.262;2023-03-24T07:39:24;17.48;;;2.03;;
28166;SDS011;15455;53.376;-6.262;2023-03-24T07:42:10;19.17;;;2.55;;
28166;SDS011;15455;53.376;-6.262;2023-03-24T07:45:16;20.33;;;2.08;;
28166;SDS011;15455;53.376;-6.262;2023-03-24T07:48:02;15.75;;;2.47;;
28166;SDS011;15455;53.376;-6.262;2023-03-24T07:50:52;24.80;;;2.45;;
28166;SDS011;15455;53.376;-6.262;2023-03-24T07:53:56;13.10;;;1.67;;
28166;SDS011;15455;53.376;-6.262;2023-03-24T07:56:51;16.20;;;1.88;;
28166;SDS011;15455;53.376;-6.262;2023-03-24T07:59:37;10.48;;;1.98;;
28166;SDS011;15455;53.376;-6.262;2023-03-24T08:02:28;12.27;;;2.33;;
28166;SDS011;15455;53.376;-6.262;2023-03-24T08:05:36;17.02;;;2.63;;
28166;SDS011;15455;53.376;-6.262;2023-03-24T08:08:41;17.95;;;2.25;;
28166;SDS011;15455;53.376;-6.262;2023-03-24T08:11:26;11.30;;;1.73;;
28166;SDS011;15455;53.376;-6.262;2023-03-24T08:14:12;13.57;;;2.20;;
28166;SDS011;15455;53.376;-6.262;2023-03-24T08:16:57;10.07;;;1.83;;
28166;SDS011;15455;53.376;-6.262;2023-03-24T08:19:43;12.98;;;2.17;;
28166;SDS011;15455;53.376;-6.262;2023-03-24T08:22:45;13.65;;;1.80;;
28166;SDS011;15455;53.376;-6.262;2023-03-24T08:25:34;13.20;;;2.10;;
28166;SDS011;15455;53.376;-6.262;2023-03-24T08:28:21;17.10;;;2.35;;
28166;SDS011;15455;53.376;-6.262;2023-03-24T08:31:07;10.75;;;1.60;;
28166;SDS011;15455;53.376;-6.262;2023-03-24T08:33:53;10.25;;;1.58;;
28166;SDS011;15455;53.376;-6.262;2023-03-24T08:36:39;18.30;;;1.80;;
28166;SDS011;15455;53.376;-6.262;2023-03-24T08:39:25;6.55;;;1.65;;
28166;SDS011;15455;53.376;-6.262;2023-03-24T08:42:10;8.52;;;1.75;;
28166;SDS011;15455;53.376;-6.262;2023-03-24T08:44:56;22.73;;;2.70;;
28166;SDS011;15455;53.376;-6.262;2023-03-24T08:47:41;12.25;;;1.98;;
28166;SDS011;15455;53.376;-6.262;2023-03-24T08:50:28;13.05;;;1.98;;
28166;SDS011;15455;53.376;-6.262;2023-03-24T08:53:16;14.73;;;2.20;;
28166;SDS011;15455;53.376;-6.262;2023-03-24T08:56:01;11.40;;;2.35;;
28166;SDS011;15455;53.376;-6.262;2023-03-24T08:58:47;18.45;;;2.05;;
28166;SDS011;15455;53.376;-6.262;2023-03-24T09:01:35;12.60;;;2.38;;
28166;SDS011;15455;53.376;-6.262;2023-03-24T09:04:20;20.05;;;2.80;;
28166;SDS011;15455;53.376;-6.262;2023-03-24T09:07:05;24.08;;;2.50;;
28166;SDS011;15455;53.376;-6.262;2023-03-24T09:09:51;10.98;;;1.83;;
28166;SDS011;15455;53.376;-6.262;2023-03-24T09:12:37;10.30;;;1.90;;
28166;SDS011;15455;53.376;-6.262;2023-03-24T09:15:23;18.70;;;2.30;;
28166;SDS011;15455;53.376;-6.262;2023-03-24T09:18:08;22.92;;;2.78;;
28166;SDS011;15455;53.376;-6.262;2023-03-24T09:20:53;11.07;;;2.22;;
28166;SDS011;15455;53.376;-6.262;2023-03-24T09:23:39;20.30;;;2.13;;
28166;SDS011;15455;53.376;-6.262;2023-03-24T09:26:24;6.18;;;1.27;;
28166;SDS011;15455;53.376;-6.262;2023-03-24T09:29:10;18.38;;;2.25;;
28166;SDS011;15455;53.376;-6.262;2023-03-24T09:31:56;10.57;;;1.58;;
28166;SDS011;15455;53.376;-6.262;2023-03-24T09:34:42;7.53;;;1.75;;
28166;SDS011;15455;53.376;-6.262;2023-03-24T09:37:28;11.35;;;1.70;;
28166;SDS011;15455;53.376;-6.262;2023-03-24T09:40:25;11.80;;;1.75;;
28166;SDS011;15455;53.376;-6.262;2023-03-24T09:46:14;15.20;;;1.85;;
28166;SDS011;15455;53.376;-6.262;2023-03-24T09:49:16;17.00;;;2.47;;
28166;SDS011;15455;53.376;-6.262;2023-03-24T09:52:11;17.08;;;1.60;;
28166;SDS011;15455;53.376;-6.262;2023-03-24T09:54:59;15.68;;;1.63;;
28166;SDS011;15455;53.376;-6.262;2023-03-24T09:57:48;7.20;;;2.22;;
28166;SDS011;15455;53.376;-6.262;2023-03-24T10:00:36;20.38;;;2.22;;
28166;SDS011;15455;53.376;-6.262;2023-03-24T10:03:22;10.70;;;1.58;;
28166;SDS011;15455;53.376;-6.262;2023-03-24T10:12:15;7.63;;;1.65;;
28166;SDS011;15455;53.376;-6.262;2023-03-24T10:18:24;10.80;;;1.15;;
28166;SDS011;15455;53.376;-6.262;2023-03-24T10:21:19;10.57;;;1.50;;
28166;SDS011;15455;53.376;-6.262;2023-03-24T10:30:19;3.13;;;0.90;;
28166;SDS011;15455;53.376;-6.262;2023-03-24T10:33:09;7.57;;;1.15;;
28166;SDS011;15455;53.376;-6.262;2023-03-24T10:35:57;13.23;;;1.55;;
28166;SDS011;15455;53.376;-6.262;2023-03-24T10:38:47;10.35;;;1.10;;
28166;SDS011;15455;53.376;-6.262;2023-03-24T10:41:33;8.40;;;1.13;;
28166;SDS011;15455;53.376;-6.262;2023-03-24T10:44:20;5.45;;;1.02;;
28166;SDS011;15455;53.376;-6.262;2023-03-24T10:47:08;17.33;;;1.90;;
28166;SDS011;15455;53.376;-6.262;2023-03-24T10:52:57;6.88;;;0.90;;
28166;SDS011;15455;53.376;-6.262;2023-03-24T10:55:42;12.23;;;1.42;;
28166;SDS011;15455;53.376;-6.262;2023-03-24T10:58:29;6.68;;;1.42;;
28166;SDS011;15455;53.376;-6.262;2023-03-24T11:01:22;15.10;;;1.60;;
28166;SDS011;15455;53.376;-6.262;2023-03-24T11:04:13;16.65;;;1.40;;
28166;SDS011;15455;53.376;-6.262;2023-03-24T11:07:14;6.15;;;1.52;;
28166;SDS011;15455;53.376;-6.262;2023-03-24T11:12:59;10.93;;;1.45;;
28166;SDS011;15455;53.376;-6.262;2023-03-24T11:15:55;11.02;;;1.05;;
28166;SDS011;15455;53.376;-6.262;2023-03-24T11:18:53;12.30;;;1.80;;
28166;SDS011;15455;53.376;-6.262;2023-03-24T11:21:46;15.43;;;1.38;;
28166;SDS011;15455;53.376;-6.262;2023-03-24T11:24:34;8.02;;;0.98;;
28166;SDS011;15455;53.376;-6.262;2023-03-24T11:27:21;10.20;;;1.20;;
28166;SDS011;15455;53.376;-6.262;2023-03-24T11:30:10;4.00;;;1.13;;
28166;SDS011;15455;53.376;-6.262;2023-03-24T11:32:58;7.65;;;0.95;;
28166;SDS011;15455;53.376;-6.262;2023-03-24T11:35:44;7.22;;;1.20;;
28166;SDS011;15455;53.376;-6.262;2023-03-24T11:38:39;8.85;;;1.50;;
28166;SDS011;15455;53.376;-6.262;2023-03-24T11:41:25;4.38;;;0.93;;
28166;SDS011;15455;53.376;-6.262;2023-03-24T11:56:14;3.58;;;1.00;;
28166;SDS011;15455;53.376;-6.262;2023-03-24T12:08:29;3.42;;;0.73;;
28166;SDS011;15455;53.376;-6.262;2023-03-24T12:11:19;9.13;;;0.95;;
28166;SDS011;15455;53.376;-6.262;2023-03-24T12:14:34;11.35;;;1.80;;
28166;SDS011;15455;53.376;-6.262;2023-03-24T12:17:44;7.35;;;1.10;;
28166;SDS011;15455;53.376;-6.262;2023-03-24T12:33:57;9.25;;;0.95;;
28166;SDS011;15455;53.376;-6.262;2023-03-24T12:43:31;3.15;;;0.60;;
28166;SDS011;15455;53.376;-6.262;2023-03-24T12:55:58;1.95;;;0.73;;
28166;SDS011;15455;53.376;-6.262;2023-03-24T12:58:49;6.45;;;0.68;;
28166;SDS011;15455;53.376;-6.262;2023-03-24T13:01:45;2.58;;;0.60;;
28166;SDS011;15455;53.376;-6.262;2023-03-24T13:04:37;5.00;;;0.95;;
28166;SDS011;15455;53.376;-6.262;2023-03-24T13:07:26;5.95;;;0.45;;
28166;SDS011;15455;53.376;-6.262;2023-03-24T13:10:17;5.88;;;0.52;;
28166;SDS011;15455;53.376;-6.262;2023-03-24T13:13:23;2.10;;;0.60;;
28166;SDS011;15455;53.376;-6.262;2023-03-24T13:16:17;3.38;;;0.70;;
28166;SDS011;15455;53.376;-6.262;2023-03-24T13:19:18;8.43;;;0.95;;
28166;SDS011;15455;53.376;-6.262;2023-03-24T13:22:10;5.57;;;0.70;;
28166;SDS011;15455;53.376;-6.262;2023-03-24T13:25:00;2.13;;;0.52;;
28166;SDS011;15455;53.376;-6.262;2023-03-24T13:27:49;3.65;;;0.47;;
28166;SDS011;15455;53.376;-6.262;2023-03-24T13:30:40;5.97;;;0.73;;
28166;SDS011;15455;53.376;-6.262;2023-03-24T13:33:28;3.25;;;0.60;;
28166;SDS011;15455;53.376;-6.262;2023-03-24T13:39:31;3.55;;;0.85;;
28166;SDS011;15455;53.376;-6.262;2023-03-24T13:42:29;4.75;;;0.63;;
28166;SDS011;15455;53.376;-6.262;2023-03-24T13:45:22;1.85;;;0.40;;
28166;SDS011;15455;53.376;-6.262;2023-03-24T13:51:00;3.67;;;0.57;;
28166;SDS011;15455;53.376;-6.262;2023-03-24T13:56:46;1.52;;;0.50;;
28166;SDS011;15455;53.376;-6.262;2023-03-24T14:08:09;4.18;;;0.80;;
28166;SDS011;15455;53.376;-6.262;2023-03-24T14:10:57;7.05;;;0.90;;
28166;SDS011;15455;53.376;-6.262;2023-03-24T14:13:45;6.22;;;0.60;;
28166;SDS011;15455;53.376;-6.262;2023-03-24T14:16:35;3.35;;;1.00;;
28166;SDS011;15455;53.376;-6.262;2023-03-24T14:20:09;4.05;;;0.60;;
28166;SDS011;15455;53.376;-6.262;2023-03-24T14:22:44;7.13;;;1.27;;
28166;SDS011;15455;53.376;-6.262;2023-03-24T14:25:32;6.50;;;0.73;;
28166;SDS011;15455;53.376;-6.262;2023-03-24T14:36:58;5.90;;;0.40;;
28166;SDS011;15455;53.376;-6.262;2023-03-24T14:39:47;2.50;;;0.60;;
28166;SDS011;15455;53.376;-6.262;2023-03-24T14:45:39;0.55;;;0.43;;
28166;SDS011;15455;53.376;-6.262;2023-03-24T14:48:37;0.88;;;0.45;;
28166;SDS011;15455;53.376;-6.262;2023-03-24T14:54:42;3.10;;;0.17;;
28166;SDS011;15455;53.376;-6.262;2023-03-24T14:57:39;1.50;;;0.60;;
28166;SDS011;15455;53.376;-6.262;2023-03-24T15:00:28;2.17;;;0.30;;
28166;SDS011;15455;53.376;-6.262;2023-03-24T15:06:17;5.57;;;0.60;;
28166;SDS011;15455;53.376;-6.262;2023-03-24T15:09:07;4.07;;;2.03;;
28166;SDS011;15455;53.376;-6.262;2023-03-24T15:11:54;3.05;;;0.98;;
28166;SDS011;15455;53.376;-6.262;2023-03-24T15:14:44;4.32;;;0.50;;
28166;SDS011;15455;53.376;-6.262;2023-03-24T15:17:29;3.70;;;0.30;;
28166;SDS011;15455;53.376;-6.262;2023-03-24T15:20:31;6.25;;;0.88;;
28166;SDS011;15455;53.376;-6.262;2023-03-24T15:23:21;3.45;;;0.70;;
28166;SDS011;15455;53.376;-6.262;2023-03-24T15:26:12;2.15;;;0.40;;
28166;SDS011;15455;53.376;-6.262;2023-03-24T15:29:01;2.95;;;0.50;;
28166;SDS011;15455;53.376;-6.262;2023-03-24T15:31:50;3.47;;;0.70;;
28166;SDS011;15455;53.376;-6.262;2023-03-24T15:34:36;1.30;;;0.60;;
28166;SDS011;15455;53.376;-6.262;2023-03-24T15:43:20;0.57;;;0.38;;
28166;SDS011;15455;53.376;-6.262;2023-03-24T15:46:16;0.75;;;0.75;;
28166;SDS011;15455;53.376;-6.262;2023-03-24T15:49:15;0.85;;;0.30;;
28166;SDS011;15455;53.376;-6.262;2023-03-24T15:55:23;1.40;;;0.25;;
28166;SDS011;15455;53.376;-6.262;2023-03-24T16:01:08;0.85;;;0.40;;
28166;SDS011;15455;53.376;-6.262;2023-03-24T16:03:58;4.53;;;0.32;;
28166;SDS011;15455;53.376;-6.262;2023-03-24T16:06:47;1.73;;;0.60;;
28166;SDS011;15455;53.376;-6.262;2023-03-24T16:09:37;3.15;;;0.77;;
28166;SDS011;15455;53.376;-6.262;2023-03-24T16:12:24;0.60;;;0.40;;
28166;SDS011;15455;53.376;-6.262;2023-03-24T16:15:11;3.95;;;0.70;;
28166;SDS011;15455;53.376;-6.262;2023-03-24T16:17:57;3.67;;;0.60;;
28166;SDS011;15455;53.376;-6.262;2023-03-24T16:20:43;2.38;;;0.50;;
28166;SDS011;15455;53.376;-6.262;2023-03-24T16:23:29;5.65;;;0.77;;
28166;SDS011;15455;53.376;-6.262;2023-03-24T16:29:07;1.08;;;0.57;;
28166;SDS011;15455;53.376;-6.262;2023-03-24T16:32:06;3.22;;;0.60;;
28166;SDS011;15455;53.376;-6.262;2023-03-24T16:34:53;2.78;;;0.52;;
28166;SDS011;15455;53.376;-6.262;2023-03-24T16:37:38;2.75;;;0.70;;
28166;SDS011;15455;53.376;-6.262;2023-03-24T16:43:44;3.58;;;0.90;;
28166;SDS011;15455;53.376;-6.262;2023-03-24T16:46:30;0.30;;;0.30;;
28166;SDS011;15455;53.376;-6.262;2023-03-24T16:49:17;0.40;;;0.15;;
28166;SDS011;15455;53.376;-6.262;2023-03-24T16:52:05;1.38;;;0.63;;
28166;SDS011;15455;53.376;-6.262;2023-03-24T16:54:55;2.87;;;0.33;;
28166;SDS011;15455;53.376;-6.262;2023-03-24T16:57:40;4.30;;;0.55;;
28166;SDS011;15455;53.376;-6.262;2023-03-24T17:00:26;4.47;;;0.50;;
28166;SDS011;15455;53.376;-6.262;2023-03-24T17:03:14;2.80;;;0.40;;
28166;SDS011;15455;53.376;-6.262;2023-03-24T17:05:59;2.63;;;0.70;;
28166;SDS011;15455;53.376;-6.262;2023-03-24T17:08:47;2.65;;;0.75;;
28166;SDS011;15455;53.376;-6.262;2023-03-24T17:11:36;2.55;;;0.68;;
28166;SDS011;15455;53.376;-6.262;2023-03-24T17:14:24;5.32;;;0.60;;
28166;SDS011;15455;53.376;-6.262;2023-03-24T17:17:10;1.65;;;0.40;;
28166;SDS011;15455;53.376;-6.262;2023-03-24T17:19:55;2.63;;;0.60;;
28166;SDS011;15455;53.376;-6.262;2023-03-24T17:22:42;4.70;;;0.90;;
28166;SDS011;15455;53.376;-6.262;2023-03-24T17:25:29;1.35;;;0.60;;
28166;SDS011;15455;53.376;-6.262;2023-03-24T17:28:14;2.22;;;0.57;;
28166;SDS011;15455;53.376;-6.262;2023-03-24T17:31:01;1.35;;;0.47;;
28166;SDS011;15455;53.376;-6.262;2023-03-24T17:33:46;2.35;;;0.60;;
28166;SDS011;15455;53.376;-6.262;2023-03-24T17:36:32;4.22;;;1.25;;
28166;SDS011;15455;53.376;-6.262;2023-03-24T17:39:18;1.98;;;0.80;;
28166;SDS011;15455;53.376;-6.262;2023-03-24T17:42:06;1.35;;;0.60;;
28166;SDS011;15455;53.376;-6.262;2023-03-24T17:44:51;4.07;;;1.13;;
28166;SDS011;15455;53.376;-6.262;2023-03-24T17:47:37;4.22;;;1.15;;
28166;SDS011;15455;53.376;-6.262;2023-03-24T17:50:23;4.38;;;1.20;;
28166;SDS011;15455;53.376;-6.262;2023-03-24T17:53:09;3.95;;;0.60;;
28166;SDS011;15455;53.376;-6.262;2023-03-24T17:55:58;4.07;;;1.40;;
28166;SDS011;15455;53.376;-6.262;2023-03-24T17:58:51;4.72;;;0.90;;
28166;SDS011;15455;53.376;-6.262;2023-03-24T18:01:39;3.28;;;0.98;;
28166;SDS011;15455;53.376;-6.262;2023-03-24T18:04:24;2.33;;;0.70;;
28166;SDS011;15455;53.376;-6.262;2023-03-24T18:07:10;1.23;;;0.68;;
28166;SDS011;15455;53.376;-6.262;2023-03-24T18:09:56;2.63;;;0.60;;
28166;SDS011;15455;53.376;-6.262;2023-03-24T18:12:42;1.45;;;0.73;;
28166;SDS011;15455;53.376;-6.262;2023-03-24T18:15:28;2.58;;;0.95;;
28166;SDS011;15455;53.376;-6.262;2023-03-24T18:18:13;2.58;;;0.80;;
28166;SDS011;15455;53.376;-6.262;2023-03-24T18:20:59;1.15;;;0.55;;
28166;SDS011;15455;53.376;-6.262;2023-03-24T18:23:45;7.78;;;1.27;;
28166;SDS011;15455;53.376;-6.262;2023-03-24T18:26:32;4.32;;;1.08;;
28166;SDS011;15455;53.376;-6.262;2023-03-24T18:29:18;3.25;;;0.98;;
28166;SDS011;15455;53.376;-6.262;2023-03-24T18:32:06;2.22;;;1.02;;
28166;SDS011;15455;53.376;-6.262;2023-03-24T18:34:52;4.82;;;1.05;;
28166;SDS011;15455;53.376;-6.262;2023-03-24T18:37:37;5.00;;;1.38;;
28166;SDS011;15455;53.376;-6.262;2023-03-24T18:40:22;4.22;;;1.23;;
28166;SDS011;15455;53.376;-6.262;2023-03-24T18:43:08;4.40;;;1.13;;
28166;SDS011;15455;53.376;-6.262;2023-03-24T18:45:53;2.90;;;0.98;;
28166;SDS011;15455;53.376;-6.262;2023-03-24T18:48:39;3.53;;;1.00;;
28166;SDS011;15455;53.376;-6.262;2023-03-24T18:51:25;4.78;;;1.55;;
28166;SDS011;15455;53.376;-6.262;2023-03-24T18:54:11;1.75;;;1.02;;
28166;SDS011;15455;53.376;-6.262;2023-03-24T18:56:57;4.40;;;1.23;;
28166;SDS011;15455;53.376;-6.262;2023-03-24T18:59:43;6.40;;;2.70;;
28166;SDS011;15455;53.376;-6.262;2023-03-24T19:02:28;2.70;;;1.95;;
28166;SDS011;15455;53.376;-6.262;2023-03-24T19:05:13;3.22;;;1.90;;
28166;SDS011;15455;53.376;-6.262;2023-03-24T19:07:59;4.85;;;2.58;;
28166;SDS011;15455;53.376;-6.262;2023-03-24T19:10:45;2.35;;;1.10;;
28166;SDS011;15455;53.376;-6.262;2023-03-24T19:13:31;3.95;;;1.60;;
28166;SDS011;15455;53.376;-6.262;2023-03-24T19:16:18;5.22;;;1.52;;
28166;SDS011;15455;53.376;-6.262;2023-03-24T19:19:04;3.83;;;1.77;;
28166;SDS011;15455;53.376;-6.262;2023-03-24T19:21:50;3.25;;;0.93;;
28166;SDS011;15455;53.376;-6.262;2023-03-24T19:24:36;2.30;;;1.27;;
28166;SDS011;15455;53.376;-6.262;2023-03-24T19:27:21;2.28;;;1.35;;
28166;SDS011;15455;53.376;-6.262;2023-03-24T19:30:07;4.93;;;2.78;;
28166;SDS011;15455;53.376;-6.262;2023-03-24T19:32:53;8.73;;;3.03;;
28166;SDS011;15455;53.376;-6.262;2023-03-24T19:35:40;5.00;;;3.83;;
28166;SDS011;15455;53.376;-6.262;2023-03-24T19:38:25;6.38;;;2.80;;
28166;SDS011;15455;53.376;-6.262;2023-03-24T19:41:12;5.60;;;2.65;;
28166;SDS011;15455;53.376;-6.262;2023-03-24T19:43:58;3.00;;;1.52;;
28166;SDS011;15455;53.376;-6.262;2023-03-24T19:46:43;6.07;;;3.40;;